sensor_id;sensor_type;location;lat;lon;timestamp;P1;durP1;ratioP1;P2;durP2;ratioP2
22764;SDS011;11549;50.852;3.816;2023-09-19T00:00:43;15.82;;;2.83;;
22764;SDS011;11549;50.852;3.816;2023-09-19T00:03:14;11.63;;;2.97;;
22764;SDS011;11549;50.852;3.816;2023-09-19T00:05:42;13.95;;;2.95;;
22764;SDS011;11549;50.852;3.816;2023-09-19T00:08:12;11.27;;;2.67;;
22764;SDS011;11549;50.852;3.816;2023-09-19T00:10:42;10.85;;;2.70;;
22764;SDS011;11549;50.852;3.816;2023-09-19T00:13:11;12.18;;;2.78;;
22764;SDS011;11549;50.852;3.816;2023-09-19T00:15:42;12.27;;;2.60;;
22764;SDS011;11549;50.852;3.816;2023-09-19T00:18:16;14.30;;;3.38;;
22764;SDS011;11549;50.852;3.816;2023-09-19T00:20:47;11.98;;;2.88;;
22764;SDS011;11549;50.852;3.816;2023-09-19T00:23:16;15.95;;;3.00;;
22764;SDS011;11549;50.852;3.816;2023-09-19T00:25:47;14.88;;;2.53;;
22764;SDS011;11549;50.852;3.816;2023-09-19T00:28:17;14.40;;;2.55;;
22764;SDS011;11549;50.852;3.816;2023-09-19T00:30:46;10.77;;;2.28;;
22764;SDS011;11549;50.852;3.816;2023-09-19T00:33:16;8.93;;;2.60;;
22764;SDS011;11549;50.852;3.816;2023-09-19T00:35:49;13.73;;;2.85;;
22764;SDS011;11549;50.852;3.816;2023-09-19T00:38:18;12.68;;;2.70;;
22764;SDS011;11549;50.852;3.816;2023-09-19T00:40:50;17.00;;;2.75;;
22764;SDS011;11549;50.852;3.816;2023-09-19T00:43:18;15.38;;;3.03;;
22764;SDS011;11549;50.852;3.816;2023-09-19T00:45:48;16.60;;;2.92;;
22764;SDS011;11549;50.852;3.816;2023-09-19T00:48:19;13.93;;;2.67;;
22764;SDS011;11549;50.852;3.816;2023-09-19T00:50:49;14.45;;;2.85;;
22764;SDS011;11549;50.852;3.816;2023-09-19T00:53:19;13.57;;;2.67;;
22764;SDS011;11549;50.852;3.816;2023-09-19T00:55:53;13.93;;;2.90;;
22764;SDS011;11549;50.852;3.816;2023-09-19T00:58:22;14.45;;;2.78;;
22764;SDS011;11549;50.852;3.816;2023-09-19T01:00:51;14.88;;;2.90;;
22764;SDS011;11549;50.852;3.816;2023-09-19T01:03:20;10.70;;;2.63;;
22764;SDS011;11549;50.852;3.816;2023-09-19T01:05:50;14.40;;;2.53;;
22764;SDS011;11549;50.852;3.816;2023-09-19T01:08:18;11.88;;;2.75;;
22764;SDS011;11549;50.852;3.816;2023-09-19T01:10:49;11.93;;;2.55;;
22764;SDS011;11549;50.852;3.816;2023-09-19T01:13:27;14.25;;;2.78;;
22764;SDS011;11549;50.852;3.816;2023-09-19T01:16:03;12.82;;;2.92;;
22764;SDS011;11549;50.852;3.816;2023-09-19T01:18:40;15.30;;;3.08;;
22764;SDS011;11549;50.852;3.816;2023-09-19T01:21:18;13.85;;;2.70;;
22764;SDS011;11549;50.852;3.816;2023-09-19T01:27:17;12.57;;;2.78;;
22764;SDS011;11549;50.852;3.816;2023-09-19T01:30:01;15.43;;;3.13;;
22764;SDS011;11549;50.852;3.816;2023-09-19T01:32:34;12.57;;;2.97;;
22764;SDS011;11549;50.852;3.816;2023-09-19T01:35:04;13.73;;;2.80;;
22764;SDS011;11549;50.852;3.816;2023-09-19T01:37:36;15.00;;;3.40;;
22764;SDS011;11549;50.852;3.816;2023-09-19T01:40:06;11.55;;;2.50;;
22764;SDS011;11549;50.852;3.816;2023-09-19T01:42:43;15.13;;;3.00;;
22764;SDS011;11549;50.852;3.816;2023-09-19T01:45:19;15.73;;;2.97;;
22764;SDS011;11549;50.852;3.816;2023-09-19T01:47:54;16.95;;;3.13;;
22764;SDS011;11549;50.852;3.816;2023-09-19T01:50:28;14.05;;;2.92;;
22764;SDS011;11549;50.852;3.816;2023-09-19T01:52:59;12.65;;;2.50;;
22764;SDS011;11549;50.852;3.816;2023-09-19T01:55:36;13.88;;;2.85;;
22764;SDS011;11549;50.852;3.816;2023-09-19T01:58:13;14.90;;;3.20;;
22764;SDS011;11549;50.852;3.816;2023-09-19T02:00:47;17.77;;;3.15;;
22764;SDS011;11549;50.852;3.816;2023-09-19T02:03:21;12.43;;;2.72;;
22764;SDS011;11549;50.852;3.816;2023-09-19T02:05:50;17.27;;;3.00;;
22764;SDS011;11549;50.852;3.816;2023-09-19T02:08:20;14.07;;;3.10;;
22764;SDS011;11549;50.852;3.816;2023-09-19T02:10:51;12.05;;;3.10;;
22764;SDS011;11549;50.852;3.816;2023-09-19T02:13:20;15.85;;;3.10;;
22764;SDS011;11549;50.852;3.816;2023-09-19T02:15:52;14.48;;;3.50;;
22764;SDS011;11549;50.852;3.816;2023-09-19T02:18:22;11.23;;;3.20;;
22764;SDS011;11549;50.852;3.816;2023-09-19T02:20:50;16.42;;;3.25;;
22764;SDS011;11549;50.852;3.816;2023-09-19T02:23:20;16.90;;;2.97;;
22764;SDS011;11549;50.852;3.816;2023-09-19T02:25:52;12.52;;;3.30;;
22764;SDS011;11549;50.852;3.816;2023-09-19T02:28:20;15.27;;;3.05;;
22764;SDS011;11549;50.852;3.816;2023-09-19T02:30:49;14.07;;;2.90;;
22764;SDS011;11549;50.852;3.816;2023-09-19T02:33:19;11.15;;;2.72;;
22764;SDS011;11549;50.852;3.816;2023-09-19T02:35:47;12.05;;;2.60;;
22764;SDS011;11549;50.852;3.816;2023-09-19T02:38:15;14.48;;;2.92;;
22764;SDS011;11549;50.852;3.816;2023-09-19T02:40:47;14.48;;;2.33;;
22764;SDS011;11549;50.852;3.816;2023-09-19T02:43:15;12.80;;;2.30;;
22764;SDS011;11549;50.852;3.816;2023-09-19T02:45:46;15.38;;;2.80;;
22764;SDS011;11549;50.852;3.816;2023-09-19T02:48:15;11.60;;;2.40;;
22764;SDS011;11549;50.852;3.816;2023-09-19T02:50:46;11.60;;;2.58;;
22764;SDS011;11549;50.852;3.816;2023-09-19T02:53:17;10.35;;;2.58;;
22764;SDS011;11549;50.852;3.816;2023-09-19T02:55:46;15.45;;;2.60;;
22764;SDS011;11549;50.852;3.816;2023-09-19T02:58:15;12.13;;;2.78;;
22764;SDS011;11549;50.852;3.816;2023-09-19T03:00:45;12.02;;;2.40;;
22764;SDS011;11549;50.852;3.816;2023-09-19T03:03:14;13.88;;;2.83;;
22764;SDS011;11549;50.852;3.816;2023-09-19T03:05:43;18.60;;;3.25;;
22764;SDS011;11549;50.852;3.816;2023-09-19T03:08:14;18.58;;;3.35;;
22764;SDS011;11549;50.852;3.816;2023-09-19T03:10:45;15.43;;;2.88;;
22764;SDS011;11549;50.852;3.816;2023-09-19T03:13:14;14.50;;;3.20;;
22764;SDS011;11549;50.852;3.816;2023-09-19T03:15:43;12.32;;;3.03;;
22764;SDS011;11549;50.852;3.816;2023-09-19T03:18:13;15.80;;;2.92;;
22764;SDS011;11549;50.852;3.816;2023-09-19T03:20:41;15.20;;;2.70;;
22764;SDS011;11549;50.852;3.816;2023-09-19T03:23:10;13.90;;;3.00;;
22764;SDS011;11549;50.852;3.816;2023-09-19T03:25:41;10.30;;;2.55;;
22764;SDS011;11549;50.852;3.816;2023-09-19T03:28:09;14.00;;;2.92;;
22764;SDS011;11549;50.852;3.816;2023-09-19T03:30:38;16.75;;;3.83;;
22764;SDS011;11549;50.852;3.816;2023-09-19T03:33:06;13.18;;;2.55;;
22764;SDS011;11549;50.852;3.816;2023-09-19T03:35:34;14.85;;;2.88;;
22764;SDS011;11549;50.852;3.816;2023-09-19T03:38:03;16.08;;;3.42;;
22764;SDS011;11549;50.852;3.816;2023-09-19T03:40:31;14.77;;;3.03;;
22764;SDS011;11549;50.852;3.816;2023-09-19T03:43:01;17.23;;;2.92;;
22764;SDS011;11549;50.852;3.816;2023-09-19T03:45:30;19.48;;;3.28;;
22764;SDS011;11549;50.852;3.816;2023-09-19T03:47:58;13.13;;;2.80;;
22764;SDS011;11549;50.852;3.816;2023-09-19T03:50:26;12.55;;;2.85;;
22764;SDS011;11549;50.852;3.816;2023-09-19T03:52:56;13.57;;;2.90;;
22764;SDS011;11549;50.852;3.816;2023-09-19T03:55:24;12.98;;;2.40;;
22764;SDS011;11549;50.852;3.816;2023-09-19T03:57:52;18.98;;;3.30;;
22764;SDS011;11549;50.852;3.816;2023-09-19T04:00:22;16.02;;;3.00;;
22764;SDS011;11549;50.852;3.816;2023-09-19T04:02:53;14.88;;;3.00;;
22764;SDS011;11549;50.852;3.816;2023-09-19T04:05:23;16.73;;;3.15;;
22764;SDS011;11549;50.852;3.816;2023-09-19T04:07:52;16.20;;;3.10;;
22764;SDS011;11549;50.852;3.816;2023-09-19T04:10:20;13.38;;;3.17;;
22764;SDS011;11549;50.852;3.816;2023-09-19T04:12:51;15.32;;;2.92;;
22764;SDS011;11549;50.852;3.816;2023-09-19T04:15:22;15.30;;;3.10;;
22764;SDS011;11549;50.852;3.816;2023-09-19T04:17:51;14.85;;;3.35;;
22764;SDS011;11549;50.852;3.816;2023-09-19T04:20:19;15.73;;;3.33;;
22764;SDS011;11549;50.852;3.816;2023-09-19T04:22:49;13.18;;;3.08;;
22764;SDS011;11549;50.852;3.816;2023-09-19T04:25:17;13.85;;;2.72;;
22764;SDS011;11549;50.852;3.816;2023-09-19T04:27:47;12.98;;;3.15;;
22764;SDS011;11549;50.852;3.816;2023-09-19T04:30:15;14.10;;;2.88;;
22764;SDS011;11549;50.852;3.816;2023-09-19T04:32:45;17.33;;;3.50;;
22764;SDS011;11549;50.852;3.816;2023-09-19T04:35:17;11.23;;;3.30;;
22764;SDS011;11549;50.852;3.816;2023-09-19T04:37:46;13.43;;;2.85;;
22764;SDS011;11549;50.852;3.816;2023-09-19T04:40:15;19.30;;;3.08;;
22764;SDS011;11549;50.852;3.816;2023-09-19T04:42:44;17.48;;;3.60;;
22764;SDS011;11549;50.852;3.816;2023-09-19T04:45:13;17.08;;;2.78;;
22764;SDS011;11549;50.852;3.816;2023-09-19T04:47:42;15.38;;;3.47;;
22764;SDS011;11549;50.852;3.816;2023-09-19T04:50:12;13.45;;;3.00;;
22764;SDS011;11549;50.852;3.816;2023-09-19T04:52:40;16.85;;;3.00;;
22764;SDS011;11549;50.852;3.816;2023-09-19T04:55:12;14.20;;;2.88;;
22764;SDS011;11549;50.852;3.816;2023-09-19T04:57:43;15.60;;;2.92;;
22764;SDS011;11549;50.852;3.816;2023-09-19T05:00:13;19.48;;;3.38;;
22764;SDS011;11549;50.852;3.816;2023-09-19T05:02:43;16.15;;;2.72;;
22764;SDS011;11549;50.852;3.816;2023-09-19T05:05:12;15.75;;;3.17;;
22764;SDS011;11549;50.852;3.816;2023-09-19T05:07:43;19.45;;;3.15;;
22764;SDS011;11549;50.852;3.816;2023-09-19T05:10:13;15.98;;;3.33;;
22764;SDS011;11549;50.852;3.816;2023-09-19T05:12:44;15.43;;;3.15;;
22764;SDS011;11549;50.852;3.816;2023-09-19T05:15:14;15.55;;;3.40;;
22764;SDS011;11549;50.852;3.816;2023-09-19T05:17:47;17.65;;;3.22;;
22764;SDS011;11549;50.852;3.816;2023-09-19T05:20:23;13.48;;;2.90;;
22764;SDS011;11549;50.852;3.816;2023-09-19T05:22:59;15.15;;;2.75;;
22764;SDS011;11549;50.852;3.816;2023-09-19T05:25:34;17.48;;;3.03;;
22764;SDS011;11549;50.852;3.816;2023-09-19T05:28:05;14.10;;;2.70;;
22764;SDS011;11549;50.852;3.816;2023-09-19T05:30:34;14.02;;;2.92;;
22764;SDS011;11549;50.852;3.816;2023-09-19T05:33:05;17.00;;;2.85;;
22764;SDS011;11549;50.852;3.816;2023-09-19T05:35:35;15.13;;;2.90;;
22764;SDS011;11549;50.852;3.816;2023-09-19T05:38:08;15.40;;;2.65;;
22764;SDS011;11549;50.852;3.816;2023-09-19T05:40:39;13.80;;;3.10;;
22764;SDS011;11549;50.852;3.816;2023-09-19T05:43:08;17.38;;;3.05;;
22764;SDS011;11549;50.852;3.816;2023-09-19T05:45:37;15.73;;;2.92;;
22764;SDS011;11549;50.852;3.816;2023-09-19T05:48:07;11.18;;;2.58;;
22764;SDS011;11549;50.852;3.816;2023-09-19T05:50:39;13.55;;;2.88;;
22764;SDS011;11549;50.852;3.816;2023-09-19T05:53:07;14.27;;;2.78;;
22764;SDS011;11549;50.852;3.816;2023-09-19T05:55:39;12.00;;;2.53;;
22764;SDS011;11549;50.852;3.816;2023-09-19T05:58:08;14.98;;;2.58;;
22764;SDS011;11549;50.852;3.816;2023-09-19T06:00:40;13.90;;;2.65;;
22764;SDS011;11549;50.852;3.816;2023-09-19T06:03:11;13.75;;;2.63;;
22764;SDS011;11549;50.852;3.816;2023-09-19T06:05:41;14.43;;;2.55;;
22764;SDS011;11549;50.852;3.816;2023-09-19T06:08:10;13.18;;;2.83;;
22764;SDS011;11549;50.852;3.816;2023-09-19T06:10:38;12.75;;;2.63;;
22764;SDS011;11549;50.852;3.816;2023-09-19T06:13:06;13.88;;;3.25;;
22764;SDS011;11549;50.852;3.816;2023-09-19T06:15:36;12.57;;;2.80;;
22764;SDS011;11549;50.852;3.816;2023-09-19T06:18:10;13.90;;;2.60;;
22764;SDS011;11549;50.852;3.816;2023-09-19T06:20:43;14.25;;;2.95;;
22764;SDS011;11549;50.852;3.816;2023-09-19T06:23:11;12.38;;;2.80;;
22764;SDS011;11549;50.852;3.816;2023-09-19T06:25:40;12.38;;;2.92;;
22764;SDS011;11549;50.852;3.816;2023-09-19T06:28:09;13.10;;;2.50;;
22764;SDS011;11549;50.852;3.816;2023-09-19T06:30:40;11.32;;;2.70;;
22764;SDS011;11549;50.852;3.816;2023-09-19T06:33:09;14.82;;;2.90;;
22764;SDS011;11549;50.852;3.816;2023-09-19T06:35:43;14.68;;;2.70;;
22764;SDS011;11549;50.852;3.816;2023-09-19T06:38:13;10.35;;;2.67;;
22764;SDS011;11549;50.852;3.816;2023-09-19T06:40:45;10.75;;;2.50;;
22764;SDS011;11549;50.852;3.816;2023-09-19T06:43:13;8.00;;;2.13;;
22764;SDS011;11549;50.852;3.816;2023-09-19T06:45:42;9.75;;;2.25;;
22764;SDS011;11549;50.852;3.816;2023-09-19T06:48:10;10.90;;;2.92;;
22764;SDS011;11549;50.852;3.816;2023-09-19T06:50:38;14.60;;;2.70;;
22764;SDS011;11549;50.852;3.816;2023-09-19T06:53:09;11.25;;;2.63;;
22764;SDS011;11549;50.852;3.816;2023-09-19T06:55:40;12.40;;;2.73;;
22764;SDS011;11549;50.852;3.816;2023-09-19T06:58:10;11.20;;;2.55;;
22764;SDS011;11549;50.852;3.816;2023-09-19T07:00:38;12.55;;;2.40;;
22764;SDS011;11549;50.852;3.816;2023-09-19T07:03:07;12.38;;;2.53;;
22764;SDS011;11549;50.852;3.816;2023-09-19T07:05:38;11.70;;;2.85;;
22764;SDS011;11549;50.852;3.816;2023-09-19T07:08:09;12.73;;;2.38;;
22764;SDS011;11549;50.852;3.816;2023-09-19T07:10:39;8.77;;;2.42;;
22764;SDS011;11549;50.852;3.816;2023-09-19T07:13:15;14.95;;;2.40;;
22764;SDS011;11549;50.852;3.816;2023-09-19T07:15:44;11.88;;;2.75;;
22764;SDS011;11549;50.852;3.816;2023-09-19T07:18:14;9.80;;;2.28;;
22764;SDS011;11549;50.852;3.816;2023-09-19T07:20:45;11.13;;;2.55;;
22764;SDS011;11549;50.852;3.816;2023-09-19T07:23:18;9.60;;;2.13;;
22764;SDS011;11549;50.852;3.816;2023-09-19T07:25:48;10.77;;;2.35;;
22764;SDS011;11549;50.852;3.816;2023-09-19T07:28:17;12.23;;;2.40;;
22764;SDS011;11549;50.852;3.816;2023-09-19T07:30:45;10.18;;;2.13;;
22764;SDS011;11549;50.852;3.816;2023-09-19T07:33:14;14.85;;;2.88;;
22764;SDS011;11549;50.852;3.816;2023-09-19T07:35:44;12.95;;;2.40;;
22764;SDS011;11549;50.852;3.816;2023-09-19T07:38:13;14.88;;;2.65;;
22764;SDS011;11549;50.852;3.816;2023-09-19T07:40:43;10.90;;;2.15;;
22764;SDS011;11549;50.852;3.816;2023-09-19T07:43:11;9.68;;;2.15;;
22764;SDS011;11549;50.852;3.816;2023-09-19T07:45:40;12.25;;;2.80;;
22764;SDS011;11549;50.852;3.816;2023-09-19T07:48:08;12.95;;;2.65;;
22764;SDS011;11549;50.852;3.816;2023-09-19T07:50:41;10.82;;;2.40;;
22764;SDS011;11549;50.852;3.816;2023-09-19T07:53:11;8.93;;;2.10;;
22764;SDS011;11549;50.852;3.816;2023-09-19T07:55:41;13.50;;;2.35;;
22764;SDS011;11549;50.852;3.816;2023-09-19T07:58:14;15.18;;;2.88;;
22764;SDS011;11549;50.852;3.816;2023-09-19T08:00:43;10.52;;;2.38;;
22764;SDS011;11549;50.852;3.816;2023-09-19T08:03:12;11.25;;;2.88;;
22764;SDS011;11549;50.852;3.816;2023-09-19T08:05:43;11.13;;;2.30;;
22764;SDS011;11549;50.852;3.816;2023-09-19T08:08:12;14.18;;;2.85;;
22764;SDS011;11549;50.852;3.816;2023-09-19T08:10:43;14.23;;;2.60;;
22764;SDS011;11549;50.852;3.816;2023-09-19T08:15:44;12.32;;;2.83;;
22764;SDS011;11549;50.852;3.816;2023-09-19T08:18:13;13.45;;;2.38;;
22764;SDS011;11549;50.852;3.816;2023-09-19T08:20:41;13.60;;;2.50;;
22764;SDS011;11549;50.852;3.816;2023-09-19T08:23:12;9.88;;;2.10;;
22764;SDS011;11549;50.852;3.816;2023-09-19T08:25:41;12.32;;;2.30;;
22764;SDS011;11549;50.852;3.816;2023-09-19T08:28:10;11.95;;;2.42;;
22764;SDS011;11549;50.852;3.816;2023-09-19T08:30:45;14.85;;;2.40;;
22764;SDS011;11549;50.852;3.816;2023-09-19T08:33:14;9.73;;;2.40;;
22764;SDS011;11549;50.852;3.816;2023-09-19T08:35:42;10.30;;;2.35;;
22764;SDS011;11549;50.852;3.816;2023-09-19T08:38:12;10.63;;;2.45;;
22764;SDS011;11549;50.852;3.816;2023-09-19T08:40:40;10.23;;;2.65;;
22764;SDS011;11549;50.852;3.816;2023-09-19T08:43:11;10.88;;;2.33;;
22764;SDS011;11549;50.852;3.816;2023-09-19T08:45:40;11.90;;;2.50;;
22764;SDS011;11549;50.852;3.816;2023-09-19T08:48:16;13.65;;;2.25;;
22764;SDS011;11549;50.852;3.816;2023-09-19T08:50:51;13.18;;;2.65;;
22764;SDS011;11549;50.852;3.816;2023-09-19T08:53:27;10.40;;;2.75;;
22764;SDS011;11549;50.852;3.816;2023-09-19T08:56:01;12.35;;;2.53;;
22764;SDS011;11549;50.852;3.816;2023-09-19T08:58:34;10.18;;;2.10;;
22764;SDS011;11549;50.852;3.816;2023-09-19T09:01:07;8.85;;;1.92;;
22764;SDS011;11549;50.852;3.816;2023-09-19T09:03:38;9.48;;;2.22;;
22764;SDS011;11549;50.852;3.816;2023-09-19T09:08:42;7.03;;;1.65;;
22764;SDS011;11549;50.852;3.816;2023-09-19T09:11:11;11.18;;;2.10;;
22764;SDS011;11549;50.852;3.816;2023-09-19T09:13:42;10.32;;;1.73;;
22764;SDS011;11549;50.852;3.816;2023-09-19T09:16:11;11.50;;;2.00;;
22764;SDS011;11549;50.852;3.816;2023-09-19T09:18:40;6.90;;;1.65;;
22764;SDS011;11549;50.852;3.816;2023-09-19T09:21:10;10.25;;;1.88;;
22764;SDS011;11549;50.852;3.816;2023-09-19T09:23:42;9.57;;;1.73;;
22764;SDS011;11549;50.852;3.816;2023-09-19T09:26:10;10.73;;;2.15;;
22764;SDS011;11549;50.852;3.816;2023-09-19T09:28:45;6.97;;;1.85;;
22764;SDS011;11549;50.852;3.816;2023-09-19T09:31:22;9.30;;;1.95;;
22764;SDS011;11549;50.852;3.816;2023-09-19T09:33:52;8.57;;;1.55;;
22764;SDS011;11549;50.852;3.816;2023-09-19T09:36:33;9.40;;;1.95;;
22764;SDS011;11549;50.852;3.816;2023-09-19T09:39:03;7.95;;;1.77;;
22764;SDS011;11549;50.852;3.816;2023-09-19T09:41:43;8.05;;;1.77;;
22764;SDS011;11549;50.852;3.816;2023-09-19T09:44:14;7.57;;;1.80;;
22764;SDS011;11549;50.852;3.816;2023-09-19T09:46:44;8.25;;;1.80;;
22764;SDS011;11549;50.852;3.816;2023-09-19T09:49:47;7.90;;;1.65;;
22764;SDS011;11549;50.852;3.816;2023-09-19T09:52:21;9.93;;;1.80;;
22764;SDS011;11549;50.852;3.816;2023-09-19T09:55:00;8.93;;;1.60;;
22764;SDS011;11549;50.852;3.816;2023-09-19T09:57:32;6.43;;;1.30;;
22764;SDS011;11549;50.852;3.816;2023-09-19T10:00:03;6.32;;;1.63;;
22764;SDS011;11549;50.852;3.816;2023-09-19T10:02:46;9.70;;;2.17;;
22764;SDS011;11549;50.852;3.816;2023-09-19T10:05:15;6.85;;;1.30;;
22764;SDS011;11549;50.852;3.816;2023-09-19T10:07:54;7.32;;;1.50;;
22764;SDS011;11549;50.852;3.816;2023-09-19T10:13:20;8.35;;;1.70;;
22764;SDS011;11549;50.852;3.816;2023-09-19T10:15:51;11.93;;;1.50;;
22764;SDS011;11549;50.852;3.816;2023-09-19T10:18:22;7.18;;;1.38;;
22764;SDS011;11549;50.852;3.816;2023-09-19T10:20:51;9.32;;;1.70;;
22764;SDS011;11549;50.852;3.816;2023-09-19T10:23:21;6.38;;;1.00;;
22764;SDS011;11549;50.852;3.816;2023-09-19T10:25:52;8.60;;;1.38;;
22764;SDS011;11549;50.852;3.816;2023-09-19T10:28:21;7.82;;;1.67;;
22764;SDS011;11549;50.852;3.816;2023-09-19T10:30:52;10.45;;;1.85;;
22764;SDS011;11549;50.852;3.816;2023-09-19T10:33:24;8.48;;;1.70;;
22764;SDS011;11549;50.852;3.816;2023-09-19T10:35:57;7.07;;;1.13;;
22764;SDS011;11549;50.852;3.816;2023-09-19T10:38:27;6.32;;;1.27;;
22764;SDS011;11549;50.852;3.816;2023-09-19T10:40:56;6.28;;;1.30;;
22764;SDS011;11549;50.852;3.816;2023-09-19T10:43:29;6.95;;;1.33;;
22764;SDS011;11549;50.852;3.816;2023-09-19T10:46:07;5.10;;;1.13;;
22764;SDS011;11549;50.852;3.816;2023-09-19T10:48:38;6.32;;;1.20;;
22764;SDS011;11549;50.852;3.816;2023-09-19T10:51:11;6.55;;;1.30;;
22764;SDS011;11549;50.852;3.816;2023-09-19T10:53:44;5.78;;;1.10;;
22764;SDS011;11549;50.852;3.816;2023-09-19T10:56:18;5.80;;;1.23;;
22764;SDS011;11549;50.852;3.816;2023-09-19T10:59:05;4.20;;;0.98;;
22764;SDS011;11549;50.852;3.816;2023-09-19T11:01:46;4.55;;;1.00;;
22764;SDS011;11549;50.852;3.816;2023-09-19T11:04:21;4.32;;;0.70;;
22764;SDS011;11549;50.852;3.816;2023-09-19T11:09:44;5.63;;;1.30;;
22764;SDS011;11549;50.852;3.816;2023-09-19T11:24:27;4.10;;;1.15;;
22764;SDS011;11549;50.852;3.816;2023-09-19T11:27:10;5.03;;;1.27;;
22764;SDS011;11549;50.852;3.816;2023-09-19T11:29:43;7.28;;;1.33;;
22764;SDS011;11549;50.852;3.816;2023-09-19T11:32:13;6.32;;;1.10;;
22764;SDS011;11549;50.852;3.816;2023-09-19T11:34:47;5.10;;;1.10;;
22764;SDS011;11549;50.852;3.816;2023-09-19T11:40:29;6.63;;;1.10;;
22764;SDS011;11549;50.852;3.816;2023-09-19T11:42:58;5.53;;;1.30;;
22764;SDS011;11549;50.852;3.816;2023-09-19T11:48:32;7.47;;;1.27;;
22764;SDS011;11549;50.852;3.816;2023-09-19T11:51:12;6.03;;;1.50;;
22764;SDS011;11549;50.852;3.816;2023-09-19T11:53:50;6.38;;;1.30;;
22764;SDS011;11549;50.852;3.816;2023-09-19T11:56:19;4.35;;;1.08;;
22764;SDS011;11549;50.852;3.816;2023-09-19T11:58:50;7.13;;;1.25;;
22764;SDS011;11549;50.852;3.816;2023-09-19T12:01:22;5.40;;;1.00;;
22764;SDS011;11549;50.852;3.816;2023-09-19T12:03:52;6.93;;;1.40;;
22764;SDS011;11549;50.852;3.816;2023-09-19T12:06:25;7.72;;;1.48;;
22764;SDS011;11549;50.852;3.816;2023-09-19T12:08:54;5.68;;;1.10;;
22764;SDS011;11549;50.852;3.816;2023-09-19T12:11:23;6.80;;;1.23;;
22764;SDS011;11549;50.852;3.816;2023-09-19T12:13:56;5.03;;;1.20;;
22764;SDS011;11549;50.852;3.816;2023-09-19T12:16:27;8.18;;;1.58;;
22764;SDS011;11549;50.852;3.816;2023-09-19T12:18:57;8.07;;;1.10;;
22764;SDS011;11549;50.852;3.816;2023-09-19T12:21:52;12.55;;;1.30;;
22764;SDS011;11549;50.852;3.816;2023-09-19T12:24:23;6.20;;;1.25;;
22764;SDS011;11549;50.852;3.816;2023-09-19T12:26:52;7.47;;;1.45;;
22764;SDS011;11549;50.852;3.816;2023-09-19T12:29:23;6.10;;;1.17;;
22764;SDS011;11549;50.852;3.816;2023-09-19T12:31:52;8.85;;;1.35;;
22764;SDS011;11549;50.852;3.816;2023-09-19T12:34:25;7.75;;;1.38;;
22764;SDS011;11549;50.852;3.816;2023-09-19T12:37:06;5.00;;;1.38;;
22764;SDS011;11549;50.852;3.816;2023-09-19T12:39:48;7.50;;;1.30;;
22764;SDS011;11549;50.852;3.816;2023-09-19T12:42:18;6.40;;;1.30;;
22764;SDS011;11549;50.852;3.816;2023-09-19T12:44:49;6.63;;;1.50;;
22764;SDS011;11549;50.852;3.816;2023-09-19T12:47:21;5.25;;;1.30;;
22764;SDS011;11549;50.852;3.816;2023-09-19T12:50:07;7.85;;;1.30;;
22764;SDS011;11549;50.852;3.816;2023-09-19T12:52:43;7.05;;;1.40;;
22764;SDS011;11549;50.852;3.816;2023-09-19T12:55:20;6.93;;;1.70;;
22764;SDS011;11549;50.852;3.816;2023-09-19T12:57:56;6.78;;;1.58;;
22764;SDS011;11549;50.852;3.816;2023-09-19T13:00:33;5.97;;;1.40;;
22764;SDS011;11549;50.852;3.816;2023-09-19T13:03:11;9.60;;;1.65;;
22764;SDS011;11549;50.852;3.816;2023-09-19T13:05:49;6.85;;;1.25;;
22764;SDS011;11549;50.852;3.816;2023-09-19T13:08:23;5.30;;;1.40;;
22764;SDS011;11549;50.852;3.816;2023-09-19T13:11:03;7.25;;;1.40;;
22764;SDS011;11549;50.852;3.816;2023-09-19T13:13:40;7.00;;;2.08;;
22764;SDS011;11549;50.852;3.816;2023-09-19T13:16:14;5.55;;;1.33;;
22764;SDS011;11549;50.852;3.816;2023-09-19T13:18:46;6.65;;;1.27;;
22764;SDS011;11549;50.852;3.816;2023-09-19T13:21:26;5.70;;;1.40;;
22764;SDS011;11549;50.852;3.816;2023-09-19T13:26:47;4.80;;;1.17;;
22764;SDS011;11549;50.852;3.816;2023-09-19T13:29:15;6.95;;;1.80;;
22764;SDS011;11549;50.852;3.816;2023-09-19T13:31:46;7.68;;;1.60;;
22764;SDS011;11549;50.852;3.816;2023-09-19T13:34:15;8.52;;;1.95;;
22764;SDS011;11549;50.852;3.816;2023-09-19T13:36:44;8.38;;;1.70;;
22764;SDS011;11549;50.852;3.816;2023-09-19T13:39:15;8.50;;;1.58;;
22764;SDS011;11549;50.852;3.816;2023-09-19T13:41:45;8.85;;;1.85;;
22764;SDS011;11549;50.852;3.816;2023-09-19T13:44:14;4.60;;;1.40;;
22764;SDS011;11549;50.852;3.816;2023-09-19T13:46:43;3.53;;;1.30;;
22764;SDS011;11549;50.852;3.816;2023-09-19T13:49:13;8.10;;;1.48;;
22764;SDS011;11549;50.852;3.816;2023-09-19T13:51:42;6.65;;;1.45;;
22764;SDS011;11549;50.852;3.816;2023-09-19T13:54:11;5.93;;;1.50;;
22764;SDS011;11549;50.852;3.816;2023-09-19T13:56:41;5.35;;;1.55;;
22764;SDS011;11549;50.852;3.816;2023-09-19T13:59:11;7.05;;;1.52;;
22764;SDS011;11549;50.852;3.816;2023-09-19T14:01:39;6.55;;;1.73;;
22764;SDS011;11549;50.852;3.816;2023-09-19T14:04:08;7.82;;;1.73;;
22764;SDS011;11549;50.852;3.816;2023-09-19T14:06:41;7.15;;;1.83;;
22764;SDS011;11549;50.852;3.816;2023-09-19T14:09:09;7.00;;;1.40;;
22764;SDS011;11549;50.852;3.816;2023-09-19T14:11:39;5.22;;;1.52;;
22764;SDS011;11549;50.852;3.816;2023-09-19T14:14:08;7.22;;;1.52;;
22764;SDS011;11549;50.852;3.816;2023-09-19T14:16:38;7.78;;;1.70;;
22764;SDS011;11549;50.852;3.816;2023-09-19T14:19:08;7.88;;;1.80;;
22764;SDS011;11549;50.852;3.816;2023-09-19T14:21:36;10.82;;;2.17;;
22764;SDS011;11549;50.852;3.816;2023-09-19T14:24:05;6.13;;;1.90;;
22764;SDS011;11549;50.852;3.816;2023-09-19T14:26:36;7.93;;;1.83;;
22764;SDS011;11549;50.852;3.816;2023-09-19T14:29:04;9.82;;;1.90;;
22764;SDS011;11549;50.852;3.816;2023-09-19T14:31:35;8.13;;;1.80;;
22764;SDS011;11549;50.852;3.816;2023-09-19T14:34:06;7.85;;;2.08;;
22764;SDS011;11549;50.852;3.816;2023-09-19T14:36:36;9.10;;;1.70;;
22764;SDS011;11549;50.852;3.816;2023-09-19T14:39:05;8.63;;;1.80;;
22764;SDS011;11549;50.852;3.816;2023-09-19T14:41:34;6.90;;;1.67;;
22764;SDS011;11549;50.852;3.816;2023-09-19T14:44:03;6.47;;;1.50;;
22764;SDS011;11549;50.852;3.816;2023-09-19T14:46:32;10.07;;;1.92;;
22764;SDS011;11549;50.852;3.816;2023-09-19T14:49:04;6.05;;;1.80;;
22764;SDS011;11549;50.852;3.816;2023-09-19T14:51:33;5.88;;;1.75;;
22764;SDS011;11549;50.852;3.816;2023-09-19T14:54:02;8.15;;;1.98;;
22764;SDS011;11549;50.852;3.816;2023-09-19T14:56:31;6.45;;;1.65;;
22764;SDS011;11549;50.852;3.816;2023-09-19T14:58:59;7.30;;;1.70;;
22764;SDS011;11549;50.852;3.816;2023-09-19T15:01:27;6.03;;;1.60;;
22764;SDS011;11549;50.852;3.816;2023-09-19T15:03:55;9.15;;;2.00;;
22764;SDS011;11549;50.852;3.816;2023-09-19T15:06:26;6.03;;;1.90;;
22764;SDS011;11549;50.852;3.816;2023-09-19T15:08:54;6.18;;;1.70;;
22764;SDS011;11549;50.852;3.816;2023-09-19T15:11:23;8.10;;;1.77;;
22764;SDS011;11549;50.852;3.816;2023-09-19T15:13:51;9.20;;;2.15;;
22764;SDS011;11549;50.852;3.816;2023-09-19T15:16:20;7.97;;;2.00;;
22764;SDS011;11549;50.852;3.816;2023-09-19T15:18:49;7.72;;;2.10;;
22764;SDS011;11549;50.852;3.816;2023-09-19T15:21:18;8.95;;;2.00;;
22764;SDS011;11549;50.852;3.816;2023-09-19T15:23:48;5.63;;;1.60;;
22764;SDS011;11549;50.852;3.816;2023-09-19T15:26:15;7.78;;;2.03;;
22764;SDS011;11549;50.852;3.816;2023-09-19T15:28:47;7.82;;;2.08;;
22764;SDS011;11549;50.852;3.816;2023-09-19T15:31:16;5.15;;;1.70;;
22764;SDS011;11549;50.852;3.816;2023-09-19T15:33:44;10.18;;;2.22;;
22764;SDS011;11549;50.852;3.816;2023-09-19T15:36:13;6.28;;;1.80;;
22764;SDS011;11549;50.852;3.816;2023-09-19T15:38:59;8.45;;;1.90;;